Time;durP1;ratioP1;P1;durP2;ratioP2;P2;SDS_P1;SDS_P2;PMS_P1;PMS_P2;Temp;Humidity;BMP_temperature;BMP_pressure;BME280_temperature;BME280_humidity;BME280_pressure;Samples;Min_cycle;Max_cycle;Signal;HPM_P1;HPM_P2
2023/10/24 00:02:06;;;;;;;7.00;3.75;;;;;;;17.65;58.43;99270.78;4387736;32;33912;-74
2023/10/24 00:04:34;;;;;;;7.40;3.45;;;;;;;17.64;58.33;99285.34;4387650;32;34984;-72
2023/10/24 00:07:03;;;;;;;5.35;3.60;;;;;;;17.67;58.13;99285.00;4385579;32;33556;-75
2023/10/24 00:09:32;;;;;;;8.32;3.60;;;;;;;17.76;57.63;99275.84;4389558;32;33615;-74
2023/10/24 00:11:59;;;;;;;5.82;2.72;;;;;;;17.76;57.69;99273.12;4387875;32;35113;-75
2023/10/24 00:14:27;;;;;;;5.03;2.67;;;;;;;17.82;57.52;99268.94;4386582;32;34018;-73
2023/10/24 00:16:54;;;;;;;4.47;3.10;;;;;;;17.74;57.70;99256.22;4388939;32;35058;-74
2023/10/24 00:19:22;;;;;;;10.90;3.50;;;;;;;17.79;57.64;99251.19;4374597;32;33839;-74
2023/10/24 00:21:50;;;;;;;6.10;3.20;;;;;;;17.72;57.94;99249.28;4374080;32;35383;-75
2023/10/24 00:24:17;;;;;;;12.15;3.83;;;;;;;17.71;57.73;99243.03;4375828;32;34605;-74
2023/10/24 00:26:45;;;;;;;5.75;3.42;;;;;;;17.79;57.60;99240.34;4373657;32;33083;-74
2023/10/24 00:29:12;;;;;;;6.93;3.10;;;;;;;17.80;57.40;99235.78;4381787;32;33409;-73
2023/10/24 00:31:40;;;;;;;7.62;3.33;;;;;;;17.74;57.58;99231.84;4370506;32;35593;-73
2023/10/24 00:34:12;;;;;;;6.80;3.53;;;;;;;17.80;57.31;99223.09;4371029;32;34052;-72
2023/10/24 00:36:41;;;;;;;11.27;4.00;;;;;;;17.80;57.13;99208.72;4371824;32;33589;-72
2023/10/24 00:39:08;;;;;;;6.90;3.45;;;;;;;17.73;57.44;99213.09;4372101;32;35018;-73
2023/10/24 00:41:36;;;;;;;9.05;3.42;;;;;;;17.66;57.46;99202.13;4381333;32;33753;-72
2023/10/24 00:44:06;;;;;;;4.70;2.15;;;;;;;17.69;57.44;99199.06;4371951;32;34087;-72
2023/10/24 00:46:36;;;;;;;5.15;2.55;;;;;;;17.56;57.86;99202.31;4373979;32;34763;-74
2023/10/24 00:49:04;;;;;;;5.12;3.30;;;;;;;17.56;58.01;99204.16;4361040;32;33815;-73
2023/10/24 00:51:32;;;;;;;11.30;4.30;;;;;;;17.39;58.50;99200.66;4351919;32;33774;-75
2023/10/24 00:54:02;;;;;;;8.80;3.15;;;;;;;17.35;58.65;99197.44;4357020;32;34026;-73
2023/10/24 00:56:29;;;;;;;6.07;3.92;;;;;;;17.20;59.33;99204.56;4364600;32;34334;-75
2023/10/24 00:58:59;;;;;;;7.30;3.17;;;;;;;16.98;59.82;99204.25;4370980;32;34803;-76
2023/10/24 01:01:27;;;;;;;4.62;3.40;;;;;;;16.99;60.07;99219.44;4360294;32;33662;-74
2023/10/24 01:03:56;;;;;;;3.35;2.55;;;;;;;17.05;59.93;99217.09;4356519;32;34210;-75
2023/10/24 01:06:24;;;;;;;8.52;3.58;;;;;;;17.16;59.67;99222.13;4369762;32;34348;-74
2023/10/24 01:08:52;;;;;;;4.97;3.30;;;;;;;17.40;58.86;99232.13;4367577;32;33695;-74
2023/10/24 01:11:20;;;;;;;5.78;3.83;;;;;;;17.37;58.97;99232.44;4361291;32;33821;-72
2023/10/24 01:13:47;;;;;;;7.62;3.20;;;;;;;17.37;58.97;99241.41;4369553;32;33948;-74
2023/10/24 01:16:16;;;;;;;7.47;3.97;;;;;;;17.46;58.85;99245.78;4363870;32;33629;-73
2023/10/24 01:18:45;;;;;;;8.60;3.30;;;;;;;17.54;58.56;99242.22;4360063;32;34632;-77
2023/10/24 01:21:13;;;;;;;6.03;3.12;;;;;;;17.60;58.37;99252.38;4369396;32;34164;-77
2023/10/24 01:23:41;;;;;;;5.93;3.22;;;;;;;17.60;58.36;99256.94;4386219;32;34410;-76
2023/10/24 01:26:10;;;;;;;5.80;3.00;;;;;;;17.44;58.86;99252.38;4378129;32;33109;-72
2023/10/24 01:28:38;;;;;;;7.50;4.43;;;;;;;17.16;59.68;99238.37;4373016;32;34303;-76
2023/10/24 01:31:06;;;;;;;9.82;4.43;;;;;;;17.32;59.15;99240.22;4366688;32;34412;-76
2023/10/24 01:33:33;;;;;;;6.57;3.65;;;;;;;17.48;58.60;99231.25;4372285;32;33990;-68
2023/10/24 01:36:01;;;;;;;9.45;4.35;;;;;;;17.54;58.36;99225.16;4372570;32;34031;-68
2023/10/24 01:38:29;;;;;;;6.05;3.80;;;;;;;16.99;60.29;99226.72;4372283;32;34939;-67
2023/10/24 01:40:56;;;;;;;8.60;3.87;;;;;;;17.20;59.50;99220.78;4367314;32;33946;-74
2023/10/24 01:43:24;;;;;;;6.85;3.10;;;;;;;17.34;58.80;99220.09;4359488;32;34616;-75
2023/10/24 01:45:52;;;;;;;7.43;4.15;;;;;;;17.38;58.64;99217.91;4360308;32;33621;-75
2023/10/24 01:48:19;;;;;;;7.25;3.60;;;;;;;17.07;59.69;99218.59;4365271;32;33471;-75
2023/10/24 01:50:47;;;;;;;6.43;3.25;;;;;;;17.24;58.90;99216.75;4367846;32;34159;-75
2023/10/24 01:53:15;;;;;;;4.97;3.20;;;;;;;17.36;58.29;99220.75;4367698;32;34142;-76
2023/10/24 01:55:42;;;;;;;5.47;3.30;;;;;;;17.08;59.27;99220.28;4367470;32;34495;-73
2023/10/24 01:58:10;;;;;;;10.60;4.12;;;;;;;17.23;58.64;99209.63;4370166;32;34514;-75
2023/10/24 02:00:38;;;;;;;8.93;3.55;;;;;;;17.26;58.70;99217.41;4381416;32;34020;-76
2023/10/24 02:03:05;;;;;;;6.05;3.67;;;;;;;17.36;58.24;99207.25;4391729;32;35278;-76
2023/10/24 02:05:33;;;;;;;9.32;3.95;;;;;;;17.35;58.20;99200.16;4390048;32;34368;-73
2023/10/24 02:08:02;;;;;;;6.72;3.72;;;;;;;17.31;58.08;99201.50;4391723;32;33572;-73
2023/10/24 02:10:30;;;;;;;6.68;4.03;;;;;;;17.33;58.11;99199.47;4389414;32;33817;-76
2023/10/24 02:12:57;;;;;;;4.57;2.72;;;;;;;17.35;58.16;99189.31;4388871;32;33564;-76
2023/10/24 02:15:25;;;;;;;6.75;3.50;;;;;;;17.37;58.05;99187.31;4389567;32;33183;-75
2023/10/24 02:17:53;;;;;;;3.50;2.25;;;;;;;17.41;57.95;99190.50;4388679;32;34371;-75
2023/10/24 02:20:21;;;;;;;4.18;2.58;;;;;;;17.32;57.85;99192.37;4384571;32;35202;-76
2023/10/24 02:22:49;;;;;;;6.45;2.72;;;;;;;17.17;58.59;99191.38;4381655;32;35212;-76
2023/10/24 02:25:17;;;;;;;7.32;2.42;;;;;;;17.26;58.03;99198.47;4385995;32;33320;-74
2023/10/24 02:27:47;;;;;;;4.20;2.78;;;;;;;17.27;57.72;99202.00;4387669;32;33667;-76
2023/10/24 02:30:15;;;;;;;5.90;3.50;;;;;;;17.04;57.90;99205.41;4388996;32;34145;-76
2023/10/24 02:32:42;;;;;;;7.12;3.28;;;;;;;17.12;57.15;99204.56;4387245;32;33593;-74
2023/10/24 02:35:10;;;;;;;10.70;4.25;;;;;;;17.13;56.88;99207.09;4390678;32;33814;-76
2023/10/24 02:37:37;;;;;;;5.80;3.40;;;;;;;17.04;57.10;99201.84;4391570;32;34487;-76
2023/10/24 02:40:08;;;;;;;5.93;3.28;;;;;;;16.92;56.99;99201.37;4390339;32;34203;-71
2023/10/24 02:42:35;;;;;;;4.12;2.78;;;;;;;16.86;56.96;99199.34;4389718;32;33836;-77
2023/10/24 02:45:03;;;;;;;10.88;6.28;;;;;;;16.80;57.27;99217.06;4390096;32;33460;-77
2023/10/24 02:47:31;;;;;;;4.32;2.80;;;;;;;16.74;57.32;99207.72;4388301;32;34759;-76
2023/10/24 02:49:59;;;;;;;2.95;2.22;;;;;;;16.76;57.44;99194.09;4390201;32;33905;-73
2023/10/24 02:52:29;;;;;;;5.78;3.33;;;;;;;16.75;57.26;99192.37;4385600;32;33874;-76
2023/10/24 02:54:57;;;;;;;13.45;3.28;;;;;;;16.69;57.46;99191.19;4390451;32;33612;-73
2023/10/24 02:57:25;;;;;;;6.45;3.72;;;;;;;16.73;57.61;99189.00;4389752;32;33751;-75
2023/10/24 02:59:53;;;;;;;5.75;3.53;;;;;;;16.71;58.09;99175.63;4389843;32;33937;-76
2023/10/24 03:02:20;;;;;;;7.32;3.97;;;;;;;16.62;58.85;99173.94;4383009;32;34782;-76
2023/10/24 03:04:48;;;;;;;7.07;3.35;;;;;;;16.67;59.04;99157.25;4389277;32;33361;-76
2023/10/24 03:07:15;;;;;;;7.32;3.85;;;;;;;16.82;58.67;99154.72;4389714;32;33522;-76
2023/10/24 03:09:43;;;;;;;8.77;3.45;;;;;;;16.71;59.09;99139.66;4389779;32;34766;-75
2023/10/24 03:12:13;;;;;;;7.87;2.95;;;;;;;16.75;59.11;99150.00;4389340;32;34918;-76
2023/10/24 03:14:41;;;;;;;6.35;3.60;;;;;;;16.83;58.92;99149.16;4384022;32;34486;-76
2023/10/24 03:17:09;;;;;;;6.78;3.92;;;;;;;16.83;59.04;99142.91;4383523;32;34934;-76
2023/10/24 03:19:36;;;;;;;8.85;4.62;;;;;;;16.82;59.12;99128.56;4382112;32;33757;-75
2023/10/24 03:22:04;;;;;;;11.00;5.10;;;;;;;16.81;59.26;99112.50;4387333;32;33704;-76
2023/10/24 03:24:32;;;;;;;9.98;4.20;;;;;;;16.64;59.94;99101.66;4390680;32;33223;-76
2023/10/24 03:26:59;;;;;;;5.70;3.08;;;;;;;16.57;60.11;99116.03;4388600;32;33941;-69
2023/10/24 03:29:27;;;;;;;6.18;3.62;;;;;;;16.57;60.00;99133.09;4389538;32;35308;-69
2023/10/24 03:31:54;;;;;;;6.95;3.78;;;;;;;16.33;60.90;99147.37;4388798;32;34003;-70
2023/10/24 03:34:22;;;;;;;4.65;3.28;;;;;;;16.41;60.75;99147.41;4387754;32;34398;-68
2023/10/24 03:36:50;;;;;;;9.73;2.87;;;;;;;16.43;60.56;99148.06;4386715;32;34938;-69
2023/10/24 03:39:17;;;;;;;9.50;3.12;;;;;;;16.28;61.08;99153.31;4392930;32;33918;-69
2023/10/24 03:41:45;;;;;;;7.05;3.95;;;;;;;16.41;60.68;99170.87;4389678;32;34205;-70
2023/10/24 03:44:12;;;;;;;4.70;3.15;;;;;;;16.37;60.80;99183.88;4381824;32;33641;-68
2023/10/24 03:46:40;;;;;;;6.72;2.65;;;;;;;16.46;60.40;99160.41;4390321;32;35154;-70
2023/10/24 03:49:08;;;;;;;4.62;2.62;;;;;;;16.54;60.17;99166.69;4388856;32;34258;-70
2023/10/24 03:51:35;;;;;;;7.62;3.50;;;;;;;16.66;59.64;99159.09;4389808;32;33880;-69
2023/10/24 03:54:04;;;;;;;8.05;3.15;;;;;;;16.73;59.32;99164.69;4389937;32;34517;-70
2023/10/24 03:56:32;;;;;;;4.85;2.62;;;;;;;16.80;59.29;99163.00;4388821;32;34284;-70
2023/10/24 03:58:59;;;;;;;5.60;2.75;;;;;;;16.75;59.17;99150.00;4387215;32;33817;-70
2023/10/24 04:01:27;;;;;;;9.68;2.22;;;;;;;16.83;58.86;99149.16;4382604;32;33664;-68
2023/10/24 04:03:55;;;;;;;8.73;3.05;;;;;;;16.84;58.71;99148.13;4384871;32;34392;-70
2023/10/24 04:06:23;;;;;;;5.28;2.58;;;;;;;16.91;58.37;99143.75;4388276;32;34063;-71
2023/10/24 04:08:50;;;;;;;6.75;3.70;;;;;;;16.84;58.39;99137.31;4388881;32;33763;-72
2023/10/24 04:11:18;;;;;;;9.35;3.17;;;;;;;16.82;58.44;99125.88;4388184;32;33655;-69
2023/10/24 04:13:46;;;;;;;8.82;3.62;;;;;;;16.86;58.47;99134.47;4387229;32;33394;-72
2023/10/24 04:16:14;;;;;;;6.93;3.10;;;;;;;16.87;58.45;99136.16;4389087;32;35003;-72
2023/10/24 04:18:43;;;;;;;6.00;3.22;;;;;;;16.90;58.28;99135.81;4388906;32;34879;-71
2023/10/24 04:21:13;;;;;;;4.18;3.30;;;;;;;16.91;58.31;99132.94;4388742;32;35242;-69
2023/10/24 04:23:41;;;;;;;7.35;3.00;;;;;;;16.90;58.24;99127.72;4389066;32;34518;-67
2023/10/24 04:26:09;;;;;;;7.43;4.00;;;;;;;16.93;58.11;99133.63;4385507;32;35122;-68
2023/10/24 04:28:38;;;;;;;6.28;3.62;;;;;;;16.92;57.89;99128.38;4387334;32;33837;-68
2023/10/24 04:31:09;;;;;;;10.73;3.35;;;;;;;16.90;57.70;99139.34;4390078;32;33847;-71
2023/10/24 04:33:37;;;;;;;7.60;3.87;;;;;;;16.90;57.77;99149.34;4390691;32;33765;-71
2023/10/24 04:36:08;;;;;;;7.25;3.62;;;;;;;16.87;58.05;99141.56;4388619;32;33407;-71
2023/10/24 04:38:36;;;;;;;4.68;2.92;;;;;;;16.86;57.89;99148.00;4386725;32;33826;-70
2023/10/24 04:41:04;;;;;;;4.30;2.53;;;;;;;16.88;57.85;99159.44;4390756;32;33749;-69
2023/10/24 04:43:32;;;;;;;9.45;4.00;;;;;;;16.86;57.72;99161.50;4388174;32;34408;-69
2023/10/24 04:46:00;;;;;;;4.50;2.25;;;;;;;16.78;57.91;99165.03;4388527;32;33523;-69
2023/10/24 04:48:27;;;;;;;6.85;2.60;;;;;;;16.63;58.13;99150.47;4391202;32;33760;-68
2023/10/24 04:50:55;;;;;;;4.75;3.30;;;;;;;16.67;57.63;99144.56;4390130;32;33976;-69
2023/10/24 04:53:24;;;;;;;17.73;4.30;;;;;;;16.68;57.52;99148.94;4389873;32;33667;-68
2023/10/24 04:55:51;;;;;;;8.40;3.10;;;;;;;16.66;57.53;99139.31;4387587;32;33114;-68
2023/10/24 04:58:19;;;;;;;4.25;2.92;;;;;;;16.63;57.24;99134.25;4390291;32;33802;-68
2023/10/24 05:00:47;;;;;;;6.65;3.25;;;;;;;16.54;57.55;99128.03;4382952;32;34967;-67
2023/10/24 05:03:14;;;;;;;7.03;4.43;;;;;;;16.44;57.79;99133.59;4389829;32;31928;-68
2023/10/24 05:05:42;;;;;;;8.13;4.00;;;;;;;16.52;57.42;99130.88;4390995;32;33607;-67
2023/10/24 05:08:11;;;;;;;6.95;3.97;;;;;;;16.46;56.97;99142.34;4391089;32;33886;-67
2023/10/24 05:10:39;;;;;;;12.52;4.85;;;;;;;16.24;57.06;99138.44;4387815;32;34680;-66
2023/10/24 05:13:06;;;;;;;5.50;3.30;;;;;;;16.23;57.10;99134.03;4390921;32;33173;-67
2023/10/24 05:15:34;;;;;;;6.15;3.58;;;;;;;15.98;57.69;99133.13;4389954;32;34943;-68
2023/10/24 05:18:02;;;;;;;6.00;3.53;;;;;;;16.00;57.74;99139.22;4388065;32;33543;-68
2023/10/24 05:20:30;;;;;;;5.72;2.80;;;;;;;16.04;57.69;99145.97;4389267;32;34271;-68
2023/10/24 05:22:57;;;;;;;8.07;3.75;;;;;;;16.02;57.99;99131.81;4390092;32;34398;-68
2023/10/24 05:25:25;;;;;;;8.00;3.25;;;;;;;16.02;58.10;99137.22;4389007;32;34935;-68
2023/10/24 05:27:52;;;;;;;4.95;3.33;;;;;;;15.98;58.03;99133.13;4387338;32;33982;-69
2023/10/24 05:30:21;;;;;;;3.45;2.33;;;;;;;15.96;57.54;99129.78;4390078;32;33960;-68
2023/10/24 05:32:49;;;;;;;4.25;2.87;;;;;;;15.78;57.97;99127.16;4383612;32;33627;-67
2023/10/24 05:35:16;;;;;;;8.88;3.45;;;;;;;15.93;57.60;99129.25;4384927;32;33593;-67
2023/10/24 05:37:44;;;;;;;7.35;3.42;;;;;;;15.93;57.52;99135.50;4383671;32;33471;-67
2023/10/24 05:40:12;;;;;;;9.52;4.30;;;;;;;15.89;57.46;99135.97;4391616;32;33964;-66
2023/10/24 05:42:41;;;;;;;5.07;3.17;;;;;;;15.91;57.53;99125.88;4386322;32;33300;-68
2023/10/24 05:45:09;;;;;;;17.33;4.07;;;;;;;15.66;58.61;99124.87;4389343;32;34079;-67
2023/10/24 05:47:37;;;;;;;4.68;2.75;;;;;;;15.87;58.12;99128.03;4389952;32;35252;-67
2023/10/24 05:50:05;;;;;;;4.05;2.58;;;;;;;15.52;59.41;99127.19;4390425;32;34320;-66
2023/10/24 05:52:33;;;;;;;4.78;2.62;;;;;;;15.79;58.98;99138.78;4387872;32;33532;-66
2023/10/24 05:55:00;;;;;;;5.95;3.78;;;;;;;15.89;58.54;99139.53;4386417;32;33751;-66
2023/10/24 05:57:28;;;;;;;5.20;3.37;;;;;;;15.92;58.21;99149.13;4386005;32;35301;-68
2023/10/24 05:59:56;;;;;;;6.50;3.30;;;;;;;15.91;58.23;99142.91;4390250;32;33295;-66
2023/10/24 06:02:24;;;;;;;7.25;3.72;;;;;;;15.96;58.29;99137.88;4384787;32;33779;-67
2023/10/24 06:04:52;;;;;;;6.25;3.65;;;;;;;16.00;58.71;99133.81;4388476;32;33409;-67
2023/10/24 06:07:20;;;;;;;6.78;3.28;;;;;;;16.10;59.02;99139.06;4388942;32;33456;-67
2023/10/24 06:09:48;;;;;;;5.65;3.42;;;;;;;16.19;58.81;99148.06;4390623;32;34233;-67
2023/10/24 06:12:16;;;;;;;5.03;1.92;;;;;;;16.30;58.44;99145.03;4367323;32;33531;-67
2023/10/24 06:14:43;;;;;;;3.70;2.45;;;;;;;16.35;58.41;99149.94;4359065;32;33456;-68
2023/10/24 06:17:17;;;;;;;12.02;7.85;;;;;;;16.39;58.20;99162.94;4362450;32;33394;-67
2023/10/24 06:19:46;;;;;;;7.45;4.22;;;;;;;16.15;58.54;99155.63;4365801;32;35144;-67
2023/10/24 06:22:14;;;;;;;6.32;3.70;;;;;;;16.37;58.77;99146.06;4368607;32;33365;-67
2023/10/24 06:24:42;;;;;;;7.70;3.30;;;;;;;16.54;58.10;99150.47;4385777;32;34943;-67
2023/10/24 06:27:11;;;;;;;3.87;2.87;;;;;;;16.62;57.98;99148.78;4382086;32;33793;-67
2023/10/24 06:29:39;;;;;;;5.25;3.40;;;;;;;16.69;57.37;99150.66;4376655;32;35103;-70
2023/10/24 06:32:07;;;;;;;12.18;3.65;;;;;;;16.71;57.70;99139.66;4382149;32;34365;-74
2023/10/24 06:34:35;;;;;;;19.17;4.35;;;;;;;16.82;57.68;99146.63;4387127;32;33648;-71
2023/10/24 06:37:03;;;;;;;7.47;4.28;;;;;;;16.89;57.80;99153.06;4390337;32;34919;-72
2023/10/24 06:39:31;;;;;;;11.07;8.65;;;;;;;16.90;58.06;99163.69;4404360;32;33509;-70
2023/10/24 06:42:01;;;;;;;7.22;4.20;;;;;;;16.91;58.08;99161.81;4385507;32;33239;-70
2023/10/24 06:44:30;;;;;;;6.87;3.90;;;;;;;17.00;57.69;99153.53;4387243;32;33417;-70
2023/10/24 06:46:57;;;;;;;6.57;3.22;;;;;;;16.88;58.19;99140.53;4389030;32;34124;-71
2023/10/24 06:49:25;;;;;;;6.93;3.47;;;;;;;16.87;58.50;99149.66;4388688;32;33723;-71
2023/10/24 06:51:53;;;;;;;6.18;3.95;;;;;;;16.90;58.48;99144.75;4388887;32;33678;-70
2023/10/24 06:54:20;;;;;;;8.30;4.62;;;;;;;16.86;58.54;99126.38;4389078;32;34075;-70
2023/10/24 06:56:48;;;;;;;7.25;3.17;;;;;;;16.91;58.58;99127.53;4387305;32;33897;-70
2023/10/24 06:59:16;;;;;;;5.50;2.97;;;;;;;16.93;58.39;99133.63;4390416;32;35234;-70
2023/10/24 07:01:43;;;;;;;9.45;4.82;;;;;;;16.98;58.42;99124.97;4380249;32;109543;-68
2023/10/24 07:04:11;;;;;;;6.75;4.12;;;;;;;17.00;58.49;99118.38;4365543;32;33030;-69
2023/10/24 07:06:39;;;;;;;7.10;4.55;;;;;;;17.05;58.53;99117.91;4362696;32;33616;-69
2023/10/24 07:09:06;;;;;;;8.48;4.25;;;;;;;17.03;58.83;99129.88;4371554;32;34015;-70
2023/10/24 07:11:34;;;;;;;9.75;5.10;;;;;;;17.00;59.18;99118.38;4373225;32;33187;-69
2023/10/24 07:14:03;;;;;;;11.02;5.82;;;;;;;17.15;58.93;99128.53;4371020;32;34573;-70
2023/10/24 07:16:31;;;;;;;10.20;5.37;;;;;;;17.21;58.80;99139.50;4374255;32;35315;-70
2023/10/24 07:18:59;;;;;;;5.40;3.72;;;;;;;17.38;58.83;99131.34;4373345;32;33825;-71
2023/10/24 07:21:26;;;;;;;8.00;4.50;;;;;;;17.33;58.92;99128.28;4372056;32;33523;-70
2023/10/24 07:23:56;;;;;;;7.28;5.00;;;;;;;17.31;58.85;99123.06;4360001;32;34033;-71
2023/10/24 07:26:24;;;;;;;13.05;5.12;;;;;;;17.44;58.27;99127.94;4369909;32;34112;-70
2023/10/24 07:28:51;;;;;;;12.60;4.82;;;;;;;17.42;58.32;99114.56;4372084;32;34632;-70
2023/10/24 07:31:19;;;;;;;5.05;3.67;;;;;;;17.50;58.40;99123.72;4369235;32;33031;-70
2023/10/24 07:33:47;;;;;;;8.13;4.62;;;;;;;17.57;58.38;99124.69;4373904;32;34887;-69
2023/10/24 07:36:15;;;;;;;18.83;5.47;;;;;;;17.29;58.81;99116.97;4380860;32;34059;-70
2023/10/24 07:38:43;;;;;;;7.07;4.70;;;;;;;17.22;59.13;99119.53;4391011;32;34441;-70
2023/10/24 07:41:11;;;;;;;15.35;4.50;;;;;;;17.23;59.21;99101.44;4392941;32;33089;-72
2023/10/24 07:43:39;;;;;;;9.18;4.72;;;;;;;17.27;59.29;99105.50;4388736;32;32711;-72
2023/10/24 07:46:06;;;;;;;7.65;4.75;;;;;;;17.10;60.05;99104.69;4390057;32;34609;-71
2023/10/24 07:48:34;;;;;;;8.93;4.78;;;;;;;17.07;60.24;99101.50;4387842;32;34361;-71
2023/10/24 07:51:03;;;;;;;9.35;4.03;;;;;;;17.09;60.01;99108.41;4391841;32;33475;-73
2023/10/24 07:53:33;;;;;;;6.25;3.65;;;;;;;17.12;60.17;99104.53;4390868;32;33790;-66
2023/10/24 07:56:03;;;;;;;10.20;4.25;;;;;;;17.21;60.22;99106.22;4388537;32;33659;-69
2023/10/24 07:58:31;;;;;;;8.15;4.93;;;;;;;17.33;59.47;99102.09;4388842;32;34018;-67
2023/10/24 08:00:58;;;;;;;8.52;4.22;;;;;;;17.14;60.66;99091.66;4389099;32;33481;-68
2023/10/24 08:03:26;;;;;;;11.63;5.95;;;;;;;17.40;60.27;99088.75;4388911;32;34602;-67
2023/10/24 08:05:54;;;;;;;7.87;4.15;;;;;;;17.16;61.49;99095.88;4389800;32;34221;-68
2023/10/24 08:08:21;;;;;;;7.60;5.18;;;;;;;17.29;60.32;99098.06;4389189;32;33738;-68
2023/10/24 08:10:49;;;;;;;8.20;4.47;;;;;;;17.11;61.37;99106.41;4386527;32;33104;-68
2023/10/24 08:13:17;;;;;;;8.70;4.28;;;;;;;17.13;61.07;99104.34;4388088;32;35609;-69
2023/10/24 08:15:48;;;;;;;8.40;4.40;;;;;;;17.60;59.55;99102.69;4387940;32;33923;-68
2023/10/24 08:18:16;;;;;;;8.13;4.70;;;;;;;17.72;59.26;99092.31;4387490;32;35217;-68
2023/10/24 08:20:43;;;;;;;12.55;4.25;;;;;;;17.81;58.68;99100.25;4388944;32;34582;-68
2023/10/24 08:23:11;;;;;;;9.02;5.22;;;;;;;17.56;59.52;99106.75;4388464;32;33761;-68
2023/10/24 08:25:40;;;;;;;7.40;4.40;;;;;;;17.69;59.24;99115.19;4390704;32;35147;-68
2023/10/24 08:28:08;;;;;;;9.25;5.87;;;;;;;17.36;60.51;99107.16;4389796;32;34928;-70
2023/10/24 08:30:35;;;;;;;9.52;6.20;;;;;;;17.49;60.34;99112.00;4388117;32;33479;-70
2023/10/24 08:33:03;;;;;;;6.87;3.42;;;;;;;17.82;59.53;99103.81;4390210;32;33505;-70
2023/10/24 08:35:31;;;;;;;8.23;4.25;;;;;;;17.69;60.02;99098.94;4384639;32;34300;-69
2023/10/24 08:37:58;;;;;;;5.57;4.30;;;;;;;17.95;59.50;99103.25;4388131;32;34958;-69
2023/10/24 08:40:27;;;;;;;9.23;5.10;;;;;;;17.78;60.16;99097.06;4392537;32;34338;-70
2023/10/24 08:42:55;;;;;;;6.25;4.18;;;;;;;17.90;59.56;99093.78;4392221;32;34595;-72
2023/10/24 08:45:23;;;;;;;7.18;5.25;;;;;;;17.86;59.57;99102.44;4388855;32;35219;-71
2023/10/24 08:47:52;;;;;;;10.55;5.95;;;;;;;17.83;59.63;99091.97;4385455;32;34957;-70
2023/10/24 08:50:20;;;;;;;9.35;5.07;;;;;;;17.90;59.78;99093.78;4389403;32;33497;-70
2023/10/24 08:52:48;;;;;;;12.93;5.03;;;;;;;17.94;59.87;99091.53;4390098;32;33551;-70
2023/10/24 08:55:18;;;;;;;16.62;5.10;;;;;;;18.00;59.66;99085.41;4387898;32;32568;-71
2023/10/24 08:57:46;;;;;;;19.67;4.57;;;;;;;17.70;60.77;99089.78;4390294;32;35129;-70
2023/10/24 09:00:14;;;;;;;8.00;5.00;;;;;;;17.95;60.20;99093.25;4387301;32;33411;-70
2023/10/24 09:02:43;;;;;;;8.95;4.65;;;;;;;18.05;59.44;99084.91;4387405;32;33687;-68
2023/10/24 09:05:12;;;;;;;22.55;4.40;;;;;;;17.92;60.16;99078.22;4389107;32;33754;-69
2023/10/24 09:07:40;;;;;;;6.55;3.65;;;;;;;17.78;60.85;99081.66;4389896;32;34427;-69
2023/10/24 09:10:08;;;;;;;7.35;4.72;;;;;;;17.96;60.55;99069.72;4391449;32;34782;-72
2023/10/24 09:12:38;;;;;;;8.30;4.65;;;;;;;17.86;60.63;99065.38;4390118;32;34966;-71
2023/10/24 09:15:09;;;;;;;6.12;4.28;;;;;;;18.05;60.29;99058.66;4391214;32;35023;-71
2023/10/24 09:17:40;;;;;;;6.90;3.90;;;;;;;17.85;60.59;99044.75;4390617;32;34588;-72
2023/10/24 09:20:08;;;;;;;11.07;4.60;;;;;;;18.05;60.68;99047.84;4389859;32;35341;-73
2023/10/24 09:22:40;;;;;;;9.13;5.78;;;;;;;17.90;61.28;99030.66;4386360;32;33666;-71
2023/10/24 09:25:08;;;;;;;7.50;4.10;;;;;;;18.04;60.53;99032.63;4390350;32;33757;-71
2023/10/24 09:27:36;;;;;;;16.20;5.03;;;;;;;17.96;61.18;99040.78;4387036;32;34115;-70
2023/10/24 09:30:13;;;;;;;5.12;3.25;;;;;;;18.16;60.59;99046.56;4387791;32;34274;-70
2023/10/24 09:32:41;;;;;;;11.15;4.45;;;;;;;18.34;60.25;99041.69;4387546;32;33556;-69
2023/10/24 09:35:09;;;;;;;7.62;4.22;;;;;;;18.37;60.16;99051.34;4386602;32;34396;-71
2023/10/24 09:37:47;;;;;;;11.40;4.72;;;;;;;18.65;59.87;99054.31;4390653;32;34178;-73
2023/10/24 09:40:15;;;;;;;6.70;3.50;;;;;;;18.58;59.53;99056.03;4392228;32;33393;-72
2023/10/24 09:42:46;;;;;;;8.05;4.70;;;;;;;18.76;59.06;99053.88;4376760;32;34418;-75
2023/10/24 09:45:15;;;;;;;9.93;5.15;;;;;;;18.97;58.50;99055.03;4389186;32;33928;-72
2023/10/24 09:47:44;;;;;;;13.43;4.93;;;;;;;19.03;58.49;99054.28;4372232;32;34309;-71
2023/10/24 09:50:12;;;;;;;10.73;4.72;;;;;;;18.42;60.12;99059.75;4387170;32;33671;-72
2023/10/24 09:52:40;;;;;;;19.33;5.15;;;;;;;18.44;59.98;99065.00;4387072;32;33840;-71
2023/10/24 09:55:09;;;;;;;16.75;5.93;;;;;;;18.77;59.67;99055.56;4388978;32;34876;-72
2023/10/24 09:57:38;;;;;;;7.32;4.30;;;;;;;18.43;60.96;99034.34;4388230;32;35165;-71
2023/10/24 10:00:10;;;;;;;9.38;5.50;;;;;;;19.05;59.15;99031.38;4374280;32;33134;-71
2023/10/24 10:02:44;;;;;;;15.75;4.62;;;;;;;18.94;60.00;99031.88;4371389;32;33486;-72
2023/10/24 10:05:14;;;;;;;7.20;3.10;;;;;;;19.06;60.43;99038.47;4378567;32;34004;-71
2023/10/24 10:07:48;;;;;;;6.97;3.17;;;;;;;19.41;58.28;99025.19;4377477;32;35651;-70
2023/10/24 10:10:16;;;;;;;3.47;2.08;;;;;;;19.69;56.70;99006.38;4382024;32;33281;-75
2023/10/24 10:12:44;;;;;;;4.45;2.62;;;;;;;19.67;56.15;99004.88;4377841;32;33433;-72
2023/10/24 10:15:25;;;;;;;8.98;2.60;;;;;;;19.64;56.66;98986.25;4379049;32;35641;-70
2023/10/24 10:18:04;;;;;;;6.87;3.33;;;;;;;19.47;56.70;98977.47;4380433;32;34258;-70
2023/10/24 10:21:13;;;;;;;3.22;2.08;;;;;;;19.29;57.53;98972.44;4378274;32;33429;-69
2023/10/24 10:24:35;;;;;;;9.23;3.42;;;;;;;19.02;58.20;98965.84;4308513;33;33826;-70
2023/10/24 10:27:08;;;;;;;5.25;2.87;;;;;;;19.46;56.73;98973.09;4259652;33;34583;-68
2023/10/24 10:29:38;;;;;;;7.72;2.92;;;;;;;19.46;57.25;98981.22;4262003;33;33796;-72
2023/10/24 10:32:11;;;;;;;12.45;2.67;;;;;;;19.37;57.45;98979.66;4261684;33;34465;-69
2023/10/24 10:34:59;;;;;;;7.82;2.83;;;;;;;19.78;55.81;98971.81;4278368;33;35059;-73
2023/10/24 10:37:33;;;;;;;4.57;2.62;;;;;;;19.77;56.30;98965.53;4279947;33;32764;-76
2023/10/24 10:40:24;;;;;;;5.62;2.87;;;;;;;19.87;56.24;98962.50;4279521;33;35680;-75
2023/10/24 10:42:51;;;;;;;7.53;2.90;;;;;;;20.05;55.70;98953.06;4278340;33;34452;-70
2023/10/24 10:45:30;;;;;;;8.73;3.42;;;;;;;19.70;56.14;98951.03;4274878;33;32654;-72
2023/10/24 10:47:59;;;;;;;5.50;2.83;;;;;;;19.88;56.34;98947.88;4274455;33;33766;-71
2023/10/24 10:50:32;;;;;;;5.70;2.65;;;;;;;20.00;56.22;98948.22;4278334;33;33729;-70
2023/10/24 10:53:21;;;;;;;4.82;2.55;;;;;;;20.02;56.24;98952.38;4261537;33;33334;-70
2023/10/24 10:55:59;;;;;;;9.93;2.40;;;;;;;20.01;55.97;98960.75;4262904;33;34450;-71
2023/10/24 10:58:40;;;;;;;2.53;1.55;;;;;;;20.18;55.47;98962.16;4261470;33;33672;-70
2023/10/24 11:01:26;;;;;;;5.37;2.58;;;;;;;20.32;55.47;98970.41;4327662;32;33990;-70
2023/10/24 11:03:56;;;;;;;4.85;1.85;;;;;;;20.27;55.42;98957.44;4376899;32;33648;-70
2023/10/24 11:06:28;;;;;;;2.17;1.37;;;;;;;19.85;56.77;98966.44;4378372;32;33959;-70
2023/10/24 11:09:22;;;;;;;4.53;1.80;;;;;;;20.12;55.81;98964.81;4381939;32;35055;-71
2023/10/24 11:12:18;;;;;;;7.75;2.08;;;;;;;20.42;54.84;98960.06;4322782;32;34592;-71
2023/10/24 11:15:13;;;;;;;5.30;1.95;;;;;;;20.29;55.47;98973.53;4340638;32;32730;-70
2023/10/24 11:17:41;;;;;;;5.57;2.30;;;;;;;20.44;55.05;98968.84;4340652;32;33441;-69
2023/10/24 11:20:09;;;;;;;6.30;2.22;;;;;;;20.25;55.45;98971.19;4336521;32;33552;-70
2023/10/24 11:22:40;;;;;;;7.35;2.70;;;;;;;20.39;55.08;98974.06;4336293;32;34504;-72
2023/10/24 11:25:08;;;;;;;5.25;2.05;;;;;;;20.40;55.57;98965.69;4337536;32;32796;-73
2023/10/24 11:27:37;;;;;;;16.73;3.05;;;;;;;20.48;55.07;98957.41;4335388;33;34037;-71
2023/10/24 11:30:06;;;;;;;3.95;2.00;;;;;;;20.54;54.94;98961.22;4342114;32;33512;-71
2023/10/24 11:32:34;;;;;;;4.90;2.00;;;;;;;20.72;54.73;98959.88;4339672;32;34773;-72
2023/10/24 11:35:02;;;;;;;4.45;2.22;;;;;;;20.72;54.66;98965.31;4332913;32;35455;-72
2023/10/24 11:37:31;;;;;;;6.25;1.90;;;;;;;20.67;54.61;98958.63;4339105;32;35110;-71
2023/10/24 11:39:59;;;;;;;5.45;2.05;;;;;;;20.07;56.44;98959.97;4342649;32;33668;-72
2023/10/24 11:42:27;;;;;;;12.23;3.58;;;;;;;20.21;56.10;98963.63;4339659;32;34902;-72